Time;durP1;ratioP1;P1;durP2;ratioP2;P2;SDS_P1;SDS_P2;PMS_P1;PMS_P2;Temp;Humidity;BMP_temperature;BMP_pressure;BME280_temperature;BME280_humidity;BME280_pressure;Samples;Min_cycle;Max_cycle;Signal;HPM_P1;HPM_P2
2022/01/13 00:02:07;;;;;;;6.80;4.50;;;;;;;-8.81;70.86;97887.53;5113242;28;20455;-64
2022/01/13 00:04:33;;;;;;;7.72;4.10;;;;;;;-8.84;70.60;97880.59;5113234;28;20416;-65
2022/01/13 00:06:58;;;;;;;7.95;4.32;;;;;;;-8.91;70.37;97888.63;5113259;28;20111;-63
2022/01/13 00:09:24;;;;;;;7.43;4.32;;;;;;;-8.90;70.48;97892.91;5113048;28;20107;-65
2022/01/13 00:11:51;;;;;;;7.63;4.05;;;;;;;-8.93;70.37;97891.09;5113295;28;20385;-63
2022/01/13 00:17:06;;;;;;;6.53;3.90;;;;;;;-8.99;70.55;97900.84;5113155;28;20028;-61
2022/01/13 00:25:08;;;;;;;8.63;4.38;;;;;;;-9.15;70.91;97899.91;5099585;28;20044;-63
2022/01/13 00:27:37;;;;;;;6.55;3.85;;;;;;;-9.14;70.70;97894.06;5113215;28;20484;-63
2022/01/13 00:30:03;;;;;;;6.97;4.15;;;;;;;-9.12;70.39;97894.16;5112898;28;20035;-63
2022/01/13 00:32:31;;;;;;;7.00;4.43;;;;;;;-9.21;70.49;97898.66;5112949;28;20575;-65
2022/01/13 00:34:57;;;;;;;7.05;4.20;;;;;;;-9.30;70.83;97891.38;5112981;28;20036;-63
2022/01/13 00:37:23;;;;;;;7.65;4.55;;;;;;;-9.29;71.06;97894.00;5113009;28;20072;-64
2022/01/13 00:39:48;;;;;;;5.60;3.72;;;;;;;-9.29;71.39;97901.59;5112958;28;20016;-64
2022/01/13 00:42:14;;;;;;;7.53;4.53;;;;;;;-9.24;71.90;97901.91;5112885;28;20019;-64
2022/01/13 00:44:42;;;;;;;7.00;4.38;;;;;;;-9.22;71.98;97891.84;5114236;28;20019;-65
2022/01/13 00:47:10;;;;;;;8.10;4.65;;;;;;;-9.17;71.81;97896.41;5116486;27;20038;-64
2022/01/13 00:49:36;;;;;;;6.78;4.05;;;;;;;-9.14;72.06;97894.06;5116394;28;20019;-65
2022/01/13 00:52:04;;;;;;;7.20;4.82;;;;;;;-9.04;71.47;97900.56;5116421;28;20080;-63
2022/01/13 00:54:32;;;;;;;8.32;4.63;;;;;;;-8.99;71.45;97910.13;5116309;28;20024;-63
2022/01/13 00:56:58;;;;;;;7.72;4.05;;;;;;;-8.96;71.51;97912.84;5116427;28;20058;-64
2022/01/13 00:59:23;;;;;;;8.75;5.28;;;;;;;-8.86;71.52;97907.53;5116276;28;20111;-63
2022/01/13 01:01:51;;;;;;;9.73;4.95;;;;;;;-8.89;71.21;97918.38;5116337;28;20031;-64
2022/01/13 01:04:17;;;;;;;5.63;4.07;;;;;;;-8.71;70.35;97912.66;5116133;28;20020;-64
2022/01/13 01:06:44;;;;;;;6.53;4.30;;;;;;;-8.46;70.20;97914.06;5116241;28;20027;-64
2022/01/13 01:09:14;;;;;;;5.97;3.88;;;;;;;-8.23;68.79;97919.63;5116087;28;20021;-62
2022/01/13 01:11:42;;;;;;;5.97;3.50;;;;;;;-8.05;68.85;97913.84;5116088;28;20027;-65
2022/01/13 01:14:08;;;;;;;5.18;3.67;;;;;;;-7.83;67.80;97912.56;5115900;28;20034;-62
2022/01/13 01:16:36;;;;;;;6.03;3.70;;;;;;;-7.68;66.74;97910.84;5115853;28;20480;-65
2022/01/13 01:19:07;;;;;;;4.82;3.08;;;;;;;-7.44;65.39;97912.16;5115709;27;20055;-65
2022/01/13 01:21:51;;;;;;;6.50;3.75;;;;;;;-7.25;65.52;97919.97;5115943;28;20015;-65
2022/01/13 01:24:42;;;;;;;7.15;3.88;;;;;;;-7.08;64.83;97926.78;5115869;28;20423;-64
2022/01/13 01:27:15;;;;;;;6.72;4.25;;;;;;;-6.95;64.55;97919.00;5115680;28;20576;-63
2022/01/13 01:29:50;;;;;;;5.85;3.72;;;;;;;-6.81;64.13;97913.78;5115766;28;20461;-65
2022/01/13 01:32:16;;;;;;;5.05;3.33;;;;;;;-6.67;63.58;97919.56;5115763;28;20435;-65
2022/01/13 01:37:15;;;;;;;4.10;3.13;;;;;;;-6.48;62.48;97918.84;5115542;28;20464;-64
2022/01/13 01:39:43;;;;;;;8.85;4.40;;;;;;;-6.41;62.57;97915.81;5115573;28;20023;-64
2022/01/13 01:42:09;;;;;;;8.55;4.70;;;;;;;-6.34;61.95;97917.03;5115550;28;20031;-64
2022/01/13 01:44:39;;;;;;;8.45;4.55;;;;;;;-6.34;61.65;97909.38;5115539;28;20050;-65
2022/01/13 01:47:04;;;;;;;;;;;;;;;-6.25;61.19;97906.41;5115829;28;20023;-64
2022/01/13 01:49:38;;;;;;;6.55;3.33;;;;;;;-6.29;61.25;97920.66;5115197;28;19957;-63
2022/01/13 01:52:03;;;;;;;7.90;4.28;;;;;;;-6.22;61.47;97916.75;5115381;28;20031;-64
2022/01/13 01:54:29;;;;;;;8.30;4.22;;;;;;;-6.15;61.19;97923.03;5115159;28;20476;-65
2022/01/13 01:56:56;;;;;;;7.05;3.80;;;;;;;-6.18;61.01;97912.72;5114891;28;20024;-64
2022/01/13 01:59:26;;;;;;;8.52;4.57;;;;;;;-6.23;61.18;97907.38;5115035;28;20031;-65
2022/01/13 02:01:52;;;;;;;6.10;3.50;;;;;;;-6.15;61.47;97910.28;5115185;28;20028;-63
2022/01/13 02:04:19;;;;;;;5.40;3.25;;;;;;;-6.11;60.74;97902.03;5115121;28;20081;-65
2022/01/13 02:06:45;;;;;;;5.97;3.65;;;;;;;-6.11;61.01;97905.44;5114890;28;20473;-64
2022/01/13 02:09:12;;;;;;;9.20;5.72;;;;;;;-6.09;60.71;97905.50;5114692;28;20057;-62
2022/01/13 02:11:47;;;;;;;21.33;12.27;;;;;;;-6.12;60.60;97908.78;5114988;28;20076;-62
2022/01/13 02:17:05;;;;;;;29.90;9.00;;;;;;;-6.19;61.38;97904.19;5114854;28;20046;-64
2022/01/13 02:19:32;;;;;;;18.65;7.25;;;;;;;-6.26;61.55;97907.22;5114629;28;20051;-64
2022/01/13 02:21:58;;;;;;;13.07;5.22;;;;;;;-6.32;61.48;97899.28;5114689;28;20027;-65
2022/01/13 02:24:23;;;;;;;7.82;4.03;;;;;;;-6.35;61.74;97900.00;5114622;28;20031;-64
2022/01/13 02:26:49;;;;;;;9.65;5.20;;;;;;;-6.28;61.60;97893.53;5114655;28;20023;-64
2022/01/13 02:29:15;;;;;;;5.97;3.42;;;;;;;-6.22;61.21;97888.75;5114353;28;20110;-65
2022/01/13 02:31:40;;;;;;;6.05;4.05;;;;;;;-6.23;61.58;97890.41;5114626;28;20024;-65
2022/01/13 02:34:06;;;;;;;6.93;3.83;;;;;;;-6.15;61.35;97898.44;5113223;28;20089;-65
2022/01/13 02:36:32;;;;;;;8.85;3.85;;;;;;;-6.12;61.91;97900.25;5114425;28;20051;-66
2022/01/13 02:39:00;;;;;;;4.50;3.22;;;;;;;-6.13;61.85;97904.50;5114358;28;20023;-63
2022/01/13 02:41:26;;;;;;;5.63;4.25;;;;;;;-6.11;60.77;97910.53;5114334;28;20485;-65
2022/01/13 02:43:53;;;;;;;5.03;3.10;;;;;;;-6.12;60.21;97906.22;5114226;28;20035;-63
2022/01/13 02:49:04;;;;;;;7.43;2.78;;;;;;;-5.74;60.07;97908.00;5114146;28;20112;-64
2022/01/13 02:51:29;;;;;;;6.43;3.20;;;;;;;-5.69;59.33;97913.34;5114015;28;20065;-63
2022/01/13 02:53:55;;;;;;;6.55;3.28;;;;;;;-5.73;59.74;97902.09;5114123;28;20031;-62
2022/01/13 02:56:21;;;;;;;4.63;3.28;;;;;;;-5.80;59.72;97902.59;5114045;28;20023;-63
2022/01/13 02:58:46;;;;;;;5.47;3.05;;;;;;;-5.82;59.14;97894.03;5114104;28;20034;-61
2022/01/13 03:01:13;;;;;;;6.32;3.40;;;;;;;-5.84;60.58;97901.59;5112739;28;20170;-64
2022/01/13 03:03:39;;;;;;;9.48;3.33;;;;;;;-5.96;61.39;97910.38;5113978;28;20042;-64
2022/01/13 03:06:10;;;;;;;4.53;3.13;;;;;;;-6.08;61.18;97909.81;5113855;28;20049;-65
2022/01/13 03:08:36;;;;;;;;;;;;;;;-6.42;61.36;97903.88;5113671;28;20020;-65
2022/01/13 03:11:01;;;;;;;7.43;4.43;;;;;;;-6.75;62.25;97899.69;5113707;28;19918;-63
2022/01/13 03:13:29;;;;;;;5.35;3.72;;;;;;;-6.91;63.36;97897.13;5112495;28;20035;-63
2022/01/13 03:15:54;;;;;;;6.57;4.18;;;;;;;-6.93;63.42;97896.19;5113611;28;20066;-65
2022/01/13 03:18:20;;;;;;;5.80;3.72;;;;;;;-6.90;63.17;97899.75;5113455;28;20052;-65
2022/01/13 03:20:45;;;;;;;3.33;2.90;;;;;;;-6.75;62.86;97893.72;5113833;28;20028;-65
2022/01/13 03:23:16;;;;;;;4.60;3.30;;;;;;;-6.93;62.89;97901.28;5113652;28;20024;-63
2022/01/13 03:25:44;;;;;;;5.72;3.38;;;;;;;-7.14;63.26;97900.19;5113704;28;20514;-63
2022/01/13 03:28:15;;;;;;;4.60;3.00;;;;;;;-7.31;63.94;97899.31;5113667;28;20074;-64
2022/01/13 03:30:41;;;;;;;3.67;3.13;;;;;;;-7.53;64.13;97903.19;5113599;28;20412;-64
2022/01/13 03:33:08;;;;;;;6.00;3.58;;;;;;;-7.81;65.18;97904.22;5113418;28;20413;-63
2022/01/13 03:35:36;;;;;;;7.80;3.92;;;;;;;-7.99;65.55;97906.59;5113493;28;20031;-65
2022/01/13 03:38:03;;;;;;;4.55;3.00;;;;;;;-8.06;66.11;97909.56;5112252;28;20028;-63
2022/01/13 03:40:29;;;;;;;4.22;3.13;;;;;;;-8.06;66.22;97910.47;5113543;28;20015;-62
2022/01/13 03:42:54;;;;;;;4.15;3.40;;;;;;;-8.12;66.59;97902.47;5113352;28;20026;-63
2022/01/13 03:45:21;;;;;;;7.60;3.40;;;;;;;-8.21;66.47;97913.00;5113482;28;20055;-64
2022/01/13 03:47:46;;;;;;;6.43;3.75;;;;;;;-8.29;66.57;97917.63;5113397;28;20020;-64
2022/01/13 03:50:13;;;;;;;5.38;3.72;;;;;;;-8.44;67.05;97909.97;5113290;28;20031;-65
2022/01/13 03:53:02;;;;;;;4.97;3.40;;;;;;;-8.52;67.46;97922.22;5113373;28;20019;-64
2022/01/13 03:55:38;;;;;;;5.10;3.28;;;;;;;-8.65;68.21;97920.66;5113368;28;20055;-65
2022/01/13 03:58:25;;;;;;;5.85;3.25;;;;;;;-8.65;68.87;97923.19;5113244;28;20161;-64
2022/01/13 04:01:09;;;;;;;7.38;3.80;;;;;;;-8.63;69.59;97923.28;5113397;28;20065;-64
2022/01/13 04:03:35;;;;;;;7.30;4.40;;;;;;;-8.47;69.51;97922.47;5113344;28;20047;-64
2022/01/13 04:06:16;;;;;;;6.07;3.83;;;;;;;-8.43;69.40;97928.63;5113206;28;20028;-63
2022/01/13 04:08:42;;;;;;;;;;;;;;;-8.30;69.41;97923.50;5113634;28;20027;-64
2022/01/13 04:11:25;;;;;;;7.32;3.50;;;;;;;-8.26;69.58;97927.97;5113225;28;20323;-63
2022/01/13 04:14:00;;;;;;;5.97;3.60;;;;;;;-8.12;69.43;97918.56;5113273;28;20059;-63
2022/01/13 04:16:31;;;;;;;5.55;3.72;;;;;;;-7.90;68.92;97914.75;5113243;28;20027;-64
2022/01/13 04:19:04;;;;;;;4.78;2.83;;;;;;;-7.64;68.07;97917.00;5114819;28;20047;-65
2022/01/13 04:21:34;;;;;;;5.30;3.75;;;;;;;-7.47;67.33;97909.44;5117010;28;20019;-63
2022/01/13 04:24:02;;;;;;;4.38;3.03;;;;;;;-7.30;66.78;97910.34;5117059;28;20020;-63
2022/01/13 04:26:29;;;;;;;6.82;4.15;;;;;;;-7.29;66.33;97907.88;5116968;27;20440;-65
2022/01/13 04:29:04;;;;;;;10.40;3.78;;;;;;;-7.17;66.09;97912.75;5116936;28;20111;-63
2022/01/13 04:31:30;;;;;;;5.95;3.60;;;;;;;-7.08;65.54;97907.28;5116899;28;20072;-64
2022/01/13 04:33:56;;;;;;;4.32;3.33;;;;;;;-7.01;65.28;97904.25;5115671;28;20020;-64
2022/01/13 04:36:21;;;;;;;6.22;3.47;;;;;;;-6.87;64.97;97899.03;5116840;28;20016;-65
2022/01/13 04:38:46;;;;;;;6.25;3.33;;;;;;;-6.78;64.77;97896.97;5116657;28;20111;-63
2022/01/13 04:41:14;;;;;;;4.63;3.47;;;;;;;-6.72;64.99;97893.88;5116643;28;20062;-65
2022/01/13 04:43:43;;;;;;;4.70;2.95;;;;;;;-6.63;64.40;97899.44;5116649;28;20106;-65
2022/01/13 04:46:08;;;;;;;5.07;3.28;;;;;;;-6.52;64.08;97912.75;5116528;28;20073;-63
2022/01/13 04:48:34;;;;;;;6.95;3.22;;;;;;;-6.40;63.57;97917.59;5116536;28;20031;-65
2022/01/13 04:50:59;;;;;;;4.97;3.58;;;;;;;-6.26;63.06;97928.47;5116317;28;20461;-63
2022/01/13 04:53:25;;;;;;;4.28;2.90;;;;;;;-6.19;63.01;97924.56;5116415;28;20019;-65
2022/01/13 04:55:53;;;;;;;4.28;3.10;;;;;;;-6.21;63.42;97923.59;5116472;28;20024;-64
2022/01/13 04:58:21;;;;;;;5.65;3.63;;;;;;;-6.22;63.74;97927.84;5116284;28;20031;-61
2022/01/13 05:00:47;;;;;;;5.68;3.55;;;;;;;-6.14;63.14;97935.84;5116193;28;20023;-63
2022/01/13 05:03:13;;;;;;;6.93;3.67;;;;;;;-6.01;63.43;97934.78;5116296;28;20034;-65
2022/01/13 05:05:38;;;;;;;5.40;3.20;;;;;;;-6.04;63.33;97938.88;5116276;28;20465;-64
2022/01/13 05:08:05;;;;;;;5.93;2.95;;;;;;;-5.95;62.93;97936.75;5116236;28;20023;-64
2022/01/13 05:10:30;;;;;;;7.13;3.22;;;;;;;-5.92;63.74;97925.81;5116115;28;20499;-64
2022/01/13 05:12:57;;;;;;;4.93;3.33;;;;;;;-5.88;63.66;97928.59;5115965;28;20090;-65
2022/01/13 05:15:26;;;;;;;10.00;3.83;;;;;;;-5.86;64.03;97911.72;5116089;28;20031;-62
2022/01/13 05:18:10;;;;;;;7.25;3.92;;;;;;;-5.78;64.07;97913.75;5115734;28;20171;-63
2022/01/13 05:20:39;;;;;;;6.93;3.63;;;;;;;-5.76;64.17;97915.59;5115998;27;20025;-64
2022/01/13 05:23:07;;;;;;;5.85;4.00;;;;;;;-5.79;64.18;97922.19;5115878;28;20019;-65
2022/01/13 05:25:33;;;;;;;5.97;3.63;;;;;;;-5.78;64.49;97923.97;5115929;27;20051;-65
2022/01/13 05:27:59;;;;;;;5.65;3.70;;;;;;;-5.71;64.53;97919.25;5115874;28;20028;-63
2022/01/13 05:30:25;;;;;;;5.47;3.40;;;;;;;-5.78;64.99;97923.97;5114748;28;20431;-62
2022/01/13 05:32:50;;;;;;;7.00;4.25;;;;;;;-5.77;65.22;97918.94;5115614;28;20015;-65
2022/01/13 05:35:16;;;;;;;8.05;4.10;;;;;;;-5.79;65.51;97922.19;5115694;28;20465;-65
2022/01/13 05:37:43;;;;;;;7.82;4.53;;;;;;;-5.73;65.25;97915.72;5115600;28;20022;-65
2022/01/13 05:40:11;;;;;;;6.95;4.68;;;;;;;-5.71;66.00;97919.25;5115658;28;20016;-65
2022/01/13 05:42:37;;;;;;;8.48;4.55;;;;;;;-5.68;66.17;97926.16;5115503;27;20015;-65
2022/01/13 05:45:03;;;;;;;6.90;4.28;;;;;;;-5.62;66.46;97936.66;5115428;28;20030;-63
2022/01/13 05:47:29;;;;;;;6.13;4.32;;;;;;;-5.52;65.63;97948.19;5115468;28;20073;-65
2022/01/13 05:49:54;;;;;;;8.77;4.80;;;;;;;-5.54;66.02;97952.31;5115307;28;20415;-64
2022/01/13 05:52:20;;;;;;;6.75;4.43;;;;;;;-5.51;66.08;97959.25;5115208;28;20055;-63
2022/01/13 05:54:46;;;;;;;8.15;4.65;;;;;;;-5.52;66.04;97967.69;5115154;28;20020;-64
2022/01/13 05:57:11;;;;;;;6.93;4.32;;;;;;;-5.54;66.01;97967.63;5115305;28;20031;-64
2022/01/13 05:59:37;;;;;;;8.43;4.82;;;;;;;-5.55;65.82;97978.63;5115321;28;20050;-65
2022/01/13 06:02:04;;;;;;;7.95;4.65;;;;;;;-5.58;65.89;97973.38;5115133;27;20388;-65
2022/01/13 06:04:29;;;;;;;8.82;5.05;;;;;;;-5.62;66.25;97987.69;5115021;28;20175;-64
2022/01/13 06:06:55;;;;;;;8.50;4.60;;;;;;;-5.55;66.38;97975.19;5114989;28;20473;-65
2022/01/13 06:09:21;;;;;;;9.10;5.13;;;;;;;-5.55;66.78;97980.28;5114841;28;20028;-63
2022/01/13 06:11:59;;;;;;;10.52;5.55;;;;;;;-5.45;66.91;97980.81;5114926;28;20076;-63
2022/01/13 06:14:24;;;;;;;9.63;5.80;;;;;;;-5.49;67.00;97981.50;5114858;28;20032;-64
2022/01/13 06:16:50;;;;;;;8.98;5.60;;;;;;;-5.45;67.13;97979.94;5114845;27;20481;-65
2022/01/13 06:19:16;;;;;;;14.02;5.88;;;;;;;-5.40;67.12;97970.84;5114652;28;20040;-65
2022/01/13 06:21:41;;;;;;;9.88;5.63;;;;;;;-5.28;66.92;97985.88;5114727;28;20485;-64
2022/01/13 06:24:07;;;;;;;10.18;6.05;;;;;;;-4.63;66.74;97987.13;5114622;28;20023;-65
2022/01/13 06:26:33;;;;;;;10.82;5.68;;;;;;;-3.39;62.25;97985.53;5114535;28;20059;-66
2022/01/13 06:28:58;;;;;;;12.65;6.43;;;;;;;-2.32;58.49;97984.47;5114508;27;20032;-66
2022/01/13 06:31:24;;;;;;;23.45;6.38;;;;;;;-1.18;55.00;97984.84;5114523;28;20497;-67
2022/01/13 06:33:50;;;;;;;10.50;5.72;;;;;;;-0.13;52.64;97984.53;5114421;28;20027;-64
2022/01/13 06:36:15;;;;;;;9.15;5.60;;;;;;;0.45;49.94;97988.59;5114449;27;20034;-67
2022/01/13 06:38:42;;;;;;;9.18;5.70;;;;;;;1.57;47.63;97987.75;5114372;28;20020;-66
2022/01/13 06:41:07;;;;;;;9.05;5.82;;;;;;;2.12;45.58;97992.28;5114240;28;20023;-67
2022/01/13 06:43:33;;;;;;;11.85;6.03;;;;;;;2.93;43.53;97994.50;5114518;28;20034;-65
2022/01/13 06:45:59;;;;;;;10.27;6.00;;;;;;;2.92;43.35;98003.09;5114086;28;20049;-62
2022/01/13 06:48:25;;;;;;;10.60;6.05;;;;;;;3.35;41.82;98014.13;5114495;28;20077;-65
2022/01/13 06:50:51;;;;;;;11.65;6.90;;;;;;;3.65;40.75;98017.94;5114097;28;20030;-67
2022/01/13 06:53:16;;;;;;;7.38;5.80;;;;;;;4.67;38.92;98011.34;5114197;28;20062;-67
2022/01/13 06:55:42;;;;;;;9.43;5.88;;;;;;;5.28;37.59;98004.00;5114039;28;20107;-65
2022/01/13 06:58:08;;;;;;;10.45;6.45;;;;;;;5.99;37.35;98011.31;5114056;28;20023;-64
2022/01/13 07:00:33;;;;;;;9.93;6.22;;;;;;;6.72;35.22;98015.88;5114081;28;20500;-65
2022/01/13 07:03:02;;;;;;;9.93;6.47;;;;;;;6.96;33.67;98027.16;5113958;28;20111;-65
2022/01/13 07:05:28;;;;;;;10.85;6.40;;;;;;;7.19;33.63;98027.13;5113838;28;20077;-63
2022/01/13 07:07:54;;;;;;;9.77;6.00;;;;;;;7.37;32.79;98027.97;5113863;28;20028;-64
2022/01/13 07:10:20;;;;;;;9.57;6.50;;;;;;;7.76;32.14;98032.25;5113992;28;20110;-63
2022/01/13 07:12:45;;;;;;;8.10;5.60;;;;;;;8.31;31.56;98027.72;5113798;28;20099;-63
2022/01/13 07:15:11;;;;;;;8.20;6.28;;;;;;;9.06;30.49;98015.03;5113933;28;20088;-65
2022/01/13 07:17:37;;;;;;;7.47;5.80;;;;;;;9.86;29.72;98015.16;5113435;28;20039;-66
2022/01/13 07:20:04;;;;;;;9.65;6.10;;;;;;;9.10;28.96;98005.47;5113898;28;20056;-66
2022/01/13 07:22:33;;;;;;;7.57;5.63;;;;;;;9.07;29.59;98010.69;5113734;28;20047;-65
2022/01/13 07:24:58;;;;;;;7.80;5.70;;;;;;;8.80;29.13;98013.53;5113686;28;20465;-64
2022/01/13 07:27:24;;;;;;;8.90;5.72;;;;;;;8.16;29.99;98024.28;5113543;28;20032;-66
2022/01/13 07:29:50;;;;;;;7.93;5.60;;;;;;;8.56;29.62;98019.75;5113831;28;20027;-63
2022/01/13 07:32:15;;;;;;;8.07;5.57;;;;;;;9.37;28.55;98018.28;5113568;28;20012;-65
2022/01/13 07:34:41;;;;;;;7.82;5.93;;;;;;;10.22;26.62;98019.94;5113495;28;20024;-64
2022/01/13 07:37:07;;;;;;;11.10;6.13;;;;;;;9.03;27.84;98033.34;5113537;28;20023;-66
2022/01/13 07:39:35;;;;;;;9.18;5.85;;;;;;;8.83;28.01;98037.00;5113458;28;20028;-66
2022/01/13 07:42:05;;;;;;;8.50;6.28;;;;;;;9.11;28.71;98041.13;5113572;28;20023;-65
2022/01/13 07:44:31;;;;;;;11.57;6.35;;;;;;;10.42;27.77;98044.09;5113463;28;20020;-63
2022/01/13 07:46:59;;;;;;;8.75;6.00;;;;;;;11.41;25.50;98046.97;5113495;28;20111;-63
2022/01/13 07:49:25;;;;;;;8.10;5.55;;;;;;;11.47;25.05;98056.53;5113416;28;20072;-62
2022/01/13 07:51:51;;;;;;;10.55;7.13;;;;;;;11.81;25.28;98057.66;5113690;28;20091;-66
2022/01/13 07:54:16;;;;;;;8.93;6.40;;;;;;;12.02;23.42;98059.00;5115942;28;20651;-64
2022/01/13 07:56:42;;;;;;;10.73;6.18;;;;;;;11.17;24.01;98049.13;5117715;28;20042;-65
2022/01/13 07:59:08;;;;;;;7.18;5.60;;;;;;;11.01;24.47;98052.91;5117542;28;20047;-64
2022/01/13 08:01:33;;;;;;;8.70;6.20;;;;;;;11.43;25.03;98055.69;5117519;28;20024;-63
2022/01/13 08:03:59;;;;;;;8.15;6.30;;;;;;;12.63;23.52;98063.03;5117397;27;20491;-66
2022/01/13 08:06:24;;;;;;;8.25;6.30;;;;;;;12.64;23.06;98057.75;5117455;28;20457;-65
2022/01/13 08:08:50;;;;;;;10.13;6.95;;;;;;;12.71;23.16;98049.75;5117288;28;20498;-63
2022/01/13 08:11:16;;;;;;;10.10;5.85;;;;;;;11.28;24.50;98055.94;5117355;28;20019;-63
2022/01/13 08:13:42;;;;;;;15.65;7.38;;;;;;;10.99;26.09;98038.06;5117244;28;20365;-65
2022/01/13 08:16:10;;;;;;;8.43;6.43;;;;;;;11.73;25.25;98042.06;5117185;28;20027;-62
2022/01/13 08:21:21;;;;;;;8.05;6.43;;;;;;;10.30;26.49;98051.22;5117171;28;20051;-65
2022/01/13 08:23:46;;;;;;;9.88;6.80;;;;;;;11.80;24.25;98059.41;5116974;28;20072;-64
2022/01/13 08:26:12;;;;;;;8.40;5.82;;;;;;;12.55;23.67;98057.09;5117037;28;20415;-64
2022/01/13 08:28:38;;;;;;;8.48;6.38;;;;;;;11.30;24.98;98051.56;5116887;28;20020;-63
2022/01/13 08:31:04;;;;;;;8.68;6.03;;;;;;;11.89;23.80;98045.25;5116815;28;20111;-64
2022/01/13 08:33:30;;;;;;;9.88;6.63;;;;;;;11.83;23.72;98050.63;5116923;28;20094;-64
2022/01/13 08:35:56;;;;;;;8.35;6.32;;;;;;;11.90;24.26;98060.09;5116834;27;20473;-65
2022/01/13 08:38:23;;;;;;;8.82;6.05;;;;;;;11.62;23.49;98061.47;5115573;28;20398;-62
2022/01/13 08:40:57;;;;;;;7.28;5.22;;;;;;;11.28;23.61;98056.81;5116620;28;20038;-63
2022/01/13 08:43:26;;;;;;;7.68;5.93;;;;;;;10.43;25.18;98049.31;5116864;28;20028;-62
2022/01/13 08:45:52;;;;;;;7.60;5.68;;;;;;;10.27;24.90;98047.78;5116690;28;20507;-64
2022/01/13 08:48:18;;;;;;;10.02;6.93;;;;;;;10.65;24.92;98043.81;5116565;28;20026;-63
2022/01/13 08:50:44;;;;;;;7.30;5.32;;;;;;;10.39;25.36;98050.25;5116515;28;20031;-65
2022/01/13 08:53:15;;;;;;;9.45;6.40;;;;;;;10.15;26.72;98048.81;5116490;28;20533;-64
2022/01/13 08:55:40;;;;;;;8.25;6.05;;;;;;;9.96;26.18;98062.94;5115148;28;20019;-63
2022/01/13 08:58:06;;;;;;;9.50;6.57;;;;;;;8.30;28.50;98065.06;5116447;28;20536;-64
2022/01/13 09:00:36;;;;;;;8.98;6.35;;;;;;;7.79;29.27;98059.16;5116410;28;20099;-64
2022/01/13 09:03:03;;;;;;;8.85;6.13;;;;;;;7.16;30.00;98052.28;5116544;28;20103;-63
2022/01/13 09:05:28;;;;;;;7.32;5.90;;;;;;;6.33;31.90;98057.38;5114986;28;20035;-64
2022/01/13 09:07:54;;;;;;;9.60;7.13;;;;;;;5.55;32.14;98056.97;5116329;28;20024;-64
2022/01/13 09:10:23;;;;;;;8.48;6.25;;;;;;;5.38;33.29;98067.22;5116002;28;20030;-62
2022/01/13 09:12:51;;;;;;;10.52;6.85;;;;;;;4.80;35.27;98052.06;5116082;27;20023;-62
2022/01/13 09:15:24;;;;;;;10.38;6.28;;;;;;;4.70;34.27;98050.25;5116053;28;20023;-62
2022/01/13 09:17:53;;;;;;;10.38;6.45;;;;;;;4.50;33.73;98043.13;5115893;28;20040;-61
2022/01/13 09:20:20;;;;;;;10.57;6.00;;;;;;;4.15;36.18;98046.19;5116112;28;20031;-62
2022/01/13 09:22:47;;;;;;;8.63;6.35;;;;;;;3.87;36.37;98053.63;5115823;28;20027;-62
2022/01/13 09:25:12;;;;;;;10.02;6.15;;;;;;;3.13;38.24;98049.13;5115807;28;20073;-63
2022/01/13 09:27:40;;;;;;;9.63;6.28;;;;;;;3.08;38.53;98046.47;5116184;28;20027;-63
2022/01/13 09:30:08;;;;;;;10.52;6.38;;;;;;;2.88;37.02;98049.59;5115862;28;20066;-62
2022/01/13 09:32:36;;;;;;;6.70;4.57;;;;;;;2.62;38.30;98033.63;5115724;28;20032;-63
2022/01/13 09:35:07;;;;;;;8.95;5.47;;;;;;;2.46;38.62;98042.78;5115626;28;20023;-61
2022/01/13 09:37:33;;;;;;;8.90;5.70;;;;;;;2.09;38.29;98032.66;5115736;28;20071;-63
2022/01/13 09:39:59;;;;;;;8.45;5.55;;;;;;;1.96;39.08;98040.13;5115621;27;20099;-63
2022/01/13 09:42:29;;;;;;;7.40;5.03;;;;;;;1.89;39.15;98031.41;5115523;28;20012;-63
2022/01/13 09:44:57;;;;;;;9.98;5.57;;;;;;;1.84;40.48;98029.56;5115462;27;20073;-62
2022/01/13 09:47:23;;;;;;;8.15;5.30;;;;;;;1.99;39.74;98021.28;5115538;27;20034;-63
2022/01/13 09:49:50;;;;;;;7.97;5.22;;;;;;;2.15;39.09;98014.69;5115319;28;20027;-62
2022/01/13 09:52:16;;;;;;;9.00;5.10;;;;;;;2.10;38.36;98019.75;5115416;28;20166;-63
2022/01/13 09:54:42;;;;;;;7.63;5.05;;;;;;;2.05;38.21;98013.66;5115342;28;20041;-61
2022/01/13 09:57:08;;;;;;;7.07;5.13;;;;;;;2.07;38.58;98003.31;5115265;28;20102;-63
2022/01/13 09:59:34;;;;;;;7.35;5.13;;;;;;;2.09;39.95;97992.22;5115239;28;20065;-63
2022/01/13 10:01:59;;;;;;;8.57;5.90;;;;;;;2.08;39.20;97984.44;5115184;28;20044;-63
2022/01/13 10:04:53;;;;;;;7.93;5.18;;;;;;;2.10;38.42;97996.53;5115076;28;20049;-65
2022/01/13 10:07:41;;;;;;;8.15;5.25;;;;;;;2.04;38.09;97985.22;5114957;28;20058;-62
2022/01/13 10:10:14;;;;;;;6.35;4.93;;;;;;;1.87;39.21;97981.44;5114798;28;20031;-62
2022/01/13 10:12:45;;;;;;;8.95;5.72;;;;;;;1.96;39.28;97978.16;5114919;28;20032;-63
2022/01/13 10:18:04;;;;;;;9.48;5.78;;;;;;;1.87;40.41;97973.72;5114778;28;20091;-63
2022/01/13 10:20:31;;;;;;;9.10;5.18;;;;;;;1.85;39.28;97971.94;5114797;28;20016;-62
2022/01/13 10:23:11;;;;;;;7.93;5.38;;;;;;;1.76;38.31;97960.63;5114711;28;20027;-61
2022/01/13 10:25:40;;;;;;;11.35;5.93;;;;;;;1.87;38.96;97971.13;5114647;28;20039;-64
2022/01/13 10:28:11;;;;;;;10.15;5.13;;;;;;;1.77;38.71;97971.78;5114504;28;20034;-62
2022/01/13 10:30:38;;;;;;;6.78;4.80;;;;;;;1.64;37.89;97957.78;5114531;28;20027;-63
2022/01/13 10:33:19;;;;;;;9.38;4.85;;;;;;;1.72;37.31;97945.03;5114574;28;20020;-64
2022/01/13 10:35:47;;;;;;;6.70;4.47;;;;;;;1.50;36.93;97940.31;5114534;28;20480;-64
2022/01/13 10:38:16;;;;;;;7.43;4.63;;;;;;;1.54;38.68;97948.09;5114407;28;20088;-62
2022/01/13 10:40:47;;;;;;;5.82;4.82;;;;;;;1.45;38.24;97933.31;5114339;28;20450;-65
2022/01/13 10:43:22;;;;;;;7.40;5.03;;;;;;;1.49;39.01;97932.53;5114356;28;20027;-64
2022/01/13 10:45:54;;;;;;;7.55;5.38;;;;;;;1.16;38.75;97924.13;5114412;28;20020;-63
2022/01/13 10:48:25;;;;;;;7.05;5.00;;;;;;;1.31;39.69;97927.84;5114311;28;20038;-62
2022/01/13 10:50:59;;;;;;;7.30;5.32;;;;;;;1.35;39.01;97919.34;5114224;28;20108;-63
2022/01/13 10:53:36;;;;;;;9.52;4.40;;;;;;;1.32;41.07;97929.63;5114189;28;20072;-62
2022/01/13 10:56:09;;;;;;;7.13;4.75;;;;;;;1.36;39.58;97921.94;5114230;28;20020;-64
2022/01/13 10:58:41;;;;;;;8.30;5.18;;;;;;;1.37;40.22;97934.03;5114185;28;20098;-62
2022/01/13 11:01:10;;;;;;;7.47;5.07;;;;;;;1.53;39.94;97910.25;5114015;28;20081;-64
2022/01/13 11:03:39;;;;;;;9.73;5.30;;;;;;;1.49;39.86;97899.00;5114006;28;20023;-62
2022/01/13 11:06:08;;;;;;;7.57;5.40;;;;;;;1.49;39.58;97906.72;5114016;28;20110;-62
2022/01/13 11:08:47;;;;;;;8.88;5.57;;;;;;;1.60;39.17;97896.63;5113889;28;20028;-63
2022/01/13 11:11:25;;;;;;;8.18;5.18;;;;;;;1.64;39.08;97891.56;5113742;28;20031;-62
2022/01/13 11:13:54;;;;;;;8.07;5.25;;;;;;;1.64;39.09;97898.44;5114048;28;20027;-61
2022/01/13 11:16:24;;;;;;;10.02;5.40;;;;;;;1.51;39.15;97889.59;5113771;28;20035;-64
2022/01/13 11:18:50;;;;;;;9.55;5.85;;;;;;;1.39;39.14;97883.31;5113485;28;20578;-61
2022/01/13 11:21:16;;;;;;;9.20;5.35;;;;;;;1.42;37.65;97882.53;5113722;28;20094;-61
2022/01/13 11:23:45;;;;;;;7.55;4.90;;;;;;;1.46;39.01;97884.34;5113698;28;20389;-63
2022/01/13 11:26:12;;;;;;;7.65;4.90;;;;;;;1.48;38.55;97889.53;5113726;28;20051;-63
2022/01/13 11:28:39;;;;;;;7.43;4.90;;;;;;;1.45;37.09;97892.03;5112960;28;20020;-63
2022/01/13 11:31:07;;;;;;;7.47;5.25;;;;;;;1.46;38.10;97902.38;5113528;28;20046;-63
2022/01/13 11:33:36;;;;;;;8.68;5.28;;;;;;;1.38;39.25;97898.78;5113579;28;20481;-63
2022/01/13 11:36:02;;;;;;;8.10;5.13;;;;;;;1.45;39.75;97894.63;5113611;28;20058;-63
2022/01/13 11:38:30;;;;;;;7.07;4.95;;;;;;;1.41;38.42;97885.94;5113516;28;20016;-62
2022/01/13 11:41:03;;;;;;;8.15;5.53;;;;;;;1.33;40.67;97884.94;5113547;28;20050;-63
2022/01/13 11:43:40;;;;;;;8.95;5.45;;;;;;;1.36;38.20;97877.25;5113599;28;20030;-64
2022/01/13 11:46:34;;;;;;;6.55;4.70;;;;;;;1.31;38.17;97865.97;5113509;28;20028;-60
2022/01/13 11:49:07;;;;;;;9.10;4.38;;;;;;;1.16;36.82;97863.94;5112881;28;20039;-62
2022/01/13 11:52:02;;;;;;;5.45;4.03;;;;;;;1.06;36.69;97865.47;5113452;28;20518;-62
2022/01/13 11:54:33;;;;;;;7.47;4.55;;;;;;;1.08;37.74;97862.06;5113400;28;20042;-63
2022/01/13 11:57:22;;;;;;;8.57;5.25;;;;;;;1.08;36.66;97856.91;5113322;28;20044;-64
2022/01/13 11:59:57;;;;;;;7.60;4.78;;;;;;;0.97;37.38;97853.25;5113336;28;20109;-63
2022/01/13 12:02:31;;;;;;;5.82;3.97;;;;;;;1.04;37.44;97864.53;5113292;28;20485;-64
2022/01/13 12:05:05;;;;;;;6.75;4.25;;;;;;;1.02;34.82;97853.34;5113344;28;20393;-63